Time;durP1;ratioP1;P1;durP2;ratioP2;P2;SDS_P1;SDS_P2;PMS_P1;PMS_P2;Temp;Humidity;BMP_temperature;BMP_pressure;BME280_temperature;BME280_humidity;BME280_pressure;Samples;Min_cycle;Max_cycle;Signal;HPM_P1;HPM_P2
2022/10/04 00:02:02;;;;;;;1.72;0.20;;;;;;;8.48;72.78;99395.25;1699679;82;21053;-68
2022/10/04 00:04:45;;;;;;;0.60;0.20;;;;;;;8.49;73.00;99402.14;1688968;84;21573;-64
2022/10/04 00:07:17;;;;;;;0.82;0.28;;;;;;;8.46;72.94;99395.88;1701707;84;21022;-67
2022/10/04 00:09:51;;;;;;;2.75;0.17;;;;;;;8.45;72.83;99399.45;1691273;82;21595;-65
2022/10/04 00:12:34;;;;;;;1.95;0.17;;;;;;;8.49;72.73;99392.96;1701707;83;21027;-66
2022/10/04 00:15:23;;;;;;;0.65;0.20;;;;;;;8.52;72.58;99402.73;1696931;84;21044;-64
2022/10/04 00:18:13;;;;;;;1.35;0.20;;;;;;;8.50;72.88;99394.63;1699377;82;21117;-63
2022/10/04 00:20:54;;;;;;;1.27;0.30;;;;;;;8.48;73.07;99401.31;1699146;82;21502;-61
2022/10/04 00:23:27;;;;;;;1.80;0.23;;;;;;;8.46;73.12;99394.08;1700548;82;21113;-65
2022/10/04 00:26:00;;;;;;;0.55;0.20;;;;;;;8.47;72.87;99393.58;1714495;82;21512;-67
2022/10/04 00:28:38;;;;;;;0.98;0.20;;;;;;;8.52;72.86;99400.56;1712993;83;21099;-67
2022/10/04 00:31:13;;;;;;;0.93;0.20;;;;;;;8.51;72.89;99399.74;1703849;82;21122;-66
2022/10/04 00:33:44;;;;;;;3.35;0.40;;;;;;;8.52;72.93;99397.94;1711016;83;21060;-66
2022/10/04 00:36:31;;;;;;;1.52;0.30;;;;;;;8.49;73.08;99404.76;1694355;83;21074;-67
2022/10/04 00:39:10;;;;;;;0.50;0.10;;;;;;;8.49;73.06;99402.14;1688333;84;21047;-69
2022/10/04 00:41:48;;;;;;;1.87;0.20;;;;;;;8.49;73.05;99399.05;1698569;82;21031;-67
2022/10/04 00:44:29;;;;;;;0.60;0.20;;;;;;;8.58;72.94;99403.97;1699708;83;21098;-66
2022/10/04 00:46:56;;;;;;;1.30;0.28;;;;;;;8.61;72.93;99401.09;1699405;84;21524;-65
2022/10/04 00:49:25;;;;;;;1.15;0.30;;;;;;;8.62;73.08;99407.97;1689981;82;21019;-66
2022/10/04 00:52:04;;;;;;;1.85;0.25;;;;;;;8.63;73.15;99408.33;1695241;83;21082;-66
2022/10/04 00:54:40;;;;;;;2.35;0.35;;;;;;;8.60;73.25;99412.53;1698832;84;21085;-67
2022/10/04 01:48:19;;;;;;;1.95;0.40;;;;;;;8.92;73.16;99412.80;1739149;79;65198;-64
2022/10/04 01:51:03;;;;;;;1.52;0.47;;;;;;;8.91;73.37;99415.92;1751679;80;21213;-66
2022/10/04 01:53:34;;;;;;;0.93;0.23;;;;;;;8.88;73.41;99422.74;1747959;81;21092;-64
2022/10/04 01:56:14;;;;;;;2.02;0.40;;;;;;;8.89;73.58;99423.56;1772079;79;21053;-65
2022/10/04 01:58:44;;;;;;;2.22;0.40;;;;;;;8.96;73.53;99426.02;1739741;80;21108;-67
2022/10/04 02:01:26;;;;;;;1.75;0.42;;;;;;;8.96;73.59;99426.02;1756948;80;21089;-65
2022/10/04 02:04:07;;;;;;;2.85;0.55;;;;;;;8.90;73.71;99437.04;1779345;79;21099;-66
2022/10/04 02:06:38;;;;;;;1.82;0.30;;;;;;;8.85;73.92;99432.69;1768168;80;21011;-66
2022/10/04 02:09:14;;;;;;;1.50;0.20;;;;;;;8.86;74.09;99440.88;1751620;81;21723;-66
2022/10/04 02:11:43;;;;;;;2.42;0.40;;;;;;;8.88;74.09;99442.91;1720275;81;21160;-67
2022/10/04 02:14:17;;;;;;;1.90;0.42;;;;;;;8.90;73.91;99442.28;1777100;80;21083;-66
2022/10/04 02:16:45;;;;;;;2.02;0.40;;;;;;;8.88;74.09;99452.91;1775714;80;21172;-68
2022/10/04 02:19:11;;;;;;;2.25;0.30;;;;;;;8.84;74.22;99446.75;1757409;80;21065;-66
2022/10/04 02:21:38;;;;;;;2.92;0.53;;;;;;;8.83;74.24;99453.80;1755229;81;21038;-66
2022/10/04 02:24:05;;;;;;;2.05;0.30;;;;;;;8.87;74.07;99450.42;1752603;80;21548;-66
2022/10/04 02:26:32;;;;;;;0.95;0.20;;;;;;;8.88;74.18;99446.84;1736018;81;21037;-63
2022/10/04 02:28:58;;;;;;;2.95;0.45;;;;;;;8.86;74.27;99446.98;1755654;80;21124;-66
2022/10/04 02:34:10;;;;;;;1.07;0.20;;;;;;;8.86;74.50;99456.62;1753485;80;21042;-65
2022/10/04 02:36:37;;;;;;;2.00;0.47;;;;;;;8.90;74.39;99456.22;1729850;81;21113;-66
2022/10/04 02:39:11;;;;;;;1.32;0.40;;;;;;;8.92;74.51;99462.16;1751671;81;21497;-63
2022/10/04 02:41:49;;;;;;;1.60;0.40;;;;;;;8.89;74.67;99457.20;1742275;80;21197;-63
2022/10/04 02:44:36;;;;;;;1.98;0.47;;;;;;;8.86;74.89;99460.55;1733607;80;21118;-67
2022/10/04 02:47:16;;;;;;;1.57;0.33;;;;;;;8.86;75.07;99458.78;1761610;80;21542;-65
2022/10/04 02:49:54;;;;;;;1.85;0.60;;;;;;;8.91;75.04;99460.52;1755477;80;21053;-65
2022/10/04 02:52:40;;;;;;;1.22;0.30;;;;;;;8.92;75.25;99463.96;1751516;81;21056;-67
2022/10/04 02:55:15;;;;;;;1.60;0.37;;;;;;;8.88;75.41;99463.41;1761677;80;22682;-64
2022/10/04 02:57:42;;;;;;;0.95;0.20;;;;;;;8.85;75.61;99470.72;1734003;82;21553;-65
2022/10/04 03:00:19;;;;;;;4.28;0.70;;;;;;;8.85;75.74;99472.03;1756740;80;21082;-65
2022/10/04 03:03:15;;;;;;;1.77;0.50;;;;;;;8.90;75.81;99469.83;1761592;80;21471;-66
2022/10/04 03:05:42;;;;;;;2.92;0.70;;;;;;;8.92;75.95;99468.72;1760629;80;21551;-64
2022/10/04 03:08:10;;;;;;;2.72;0.70;;;;;;;8.91;76.15;99474.13;1761770;80;21117;-65
2022/10/04 03:10:37;;;;;;;1.90;0.50;;;;;;;8.91;76.26;99479.38;1764578;80;21550;-64
2022/10/04 03:13:05;;;;;;;3.42;0.65;;;;;;;8.97;76.16;99478.00;1758636;80;21033;-64
2022/10/04 03:15:31;;;;;;;2.22;0.60;;;;;;;9.02;76.22;99483.17;1743448;79;21083;-65
2022/10/04 03:17:58;;;;;;;2.47;0.72;;;;;;;9.05;76.29;99490.78;1739883;80;21013;-61
2022/10/04 03:20:25;;;;;;;2.72;0.60;;;;;;;9.04;76.29;99495.67;1761809;79;22121;-63
2022/10/04 03:22:54;;;;;;;2.37;0.82;;;;;;;9.02;76.40;99482.36;1761576;80;21054;-64
2022/10/04 03:25:26;;;;;;;2.80;0.72;;;;;;;9.03;76.53;99500.59;1750964;80;21110;-64
2022/10/04 03:28:01;;;;;;;1.57;0.65;;;;;;;9.10;76.35;99494.33;1770787;80;21037;-62
2022/10/04 03:30:28;;;;;;;3.55;1.00;;;;;;;9.09;76.43;99500.52;1757401;80;21338;-65
2022/10/04 03:32:55;;;;;;;1.90;0.55;;;;;;;9.08;76.72;99508.89;1752240;81;21039;-62
2022/10/04 03:35:36;;;;;;;3.08;0.80;;;;;;;9.03;77.03;99508.47;1758890;80;21029;-62
2022/10/04 03:38:05;;;;;;;5.37;0.60;;;;;;;9.03;77.13;99516.34;1784481;80;20982;-61
2022/10/04 03:40:32;;;;;;;2.75;0.70;;;;;;;9.07;77.15;99520.34;1763910;79;21063;-61
2022/10/04 03:43:00;;;;;;;3.42;0.80;;;;;;;9.11;77.28;99521.75;1760935;80;21021;-61
2022/10/04 03:45:27;;;;;;;2.75;0.70;;;;;;;9.13;77.38;99539.98;1758308;80;21196;-60
2022/10/04 03:47:55;;;;;;;2.90;0.70;;;;;;;9.09;77.49;99534.64;1716327;82;21635;-60
2022/10/04 03:50:25;;;;;;;2.45;0.72;;;;;;;9.06;77.71;99534.45;1734403;81;21062;-60
2022/10/04 03:53:00;;;;;;;2.65;0.70;;;;;;;9.07;77.62;99541.83;1754465;81;21038;-61
2022/10/04 03:55:35;;;;;;;2.62;0.72;;;;;;;9.10;77.53;99527.95;1773069;80;21065;-61
2022/10/04 03:58:03;;;;;;;2.17;0.70;;;;;;;9.10;77.47;99532.38;1782941;80;21038;-61
2022/10/04 04:00:30;;;;;;;1.57;0.33;;;;;;;9.07;77.39;99538.71;1785394;80;21092;-62
2022/10/04 04:03:00;;;;;;;2.30;0.35;;;;;;;9.02;76.09;99534.84;1783169;79;21049;-62
2022/10/04 04:05:34;;;;;;;2.70;0.60;;;;;;;8.99;75.74;99560.84;1783497;79;21505;-61
2022/10/04 04:08:14;;;;;;;1.40;0.25;;;;;;;8.98;74.41;99551.34;1725315;81;21074;-62
2022/10/04 04:10:50;;;;;;;0.88;0.20;;;;;;;8.91;74.16;99559.39;1740357;80;21895;-61
2022/10/04 04:13:44;;;;;;;;;;;;;;;8.79;74.47;99556.00;1756052;80;22214;-62
2022/10/04 04:16:11;;;;;;;1.22;0.30;;;;;;;8.68;74.70;99558.73;1757889;80;20206;-62
2022/10/04 04:18:42;;;;;;;1.32;0.20;;;;;;;8.64;74.29;99558.63;1765756;80;21049;-62
2022/10/04 04:21:09;;;;;;;1.07;0.13;;;;;;;8.64;74.25;99570.44;1779770;80;20983;-61
2022/10/04 04:23:42;;;;;;;2.20;0.42;;;;;;;8.61;74.25;99574.63;1756368;81;22152;-62
2022/10/04 04:26:35;;;;;;;1.15;0.20;;;;;;;8.53;74.32;99567.42;1756013;80;21034;-61
2022/10/04 04:29:13;;;;;;;1.12;0.20;;;;;;;8.52;74.57;99574.92;1731617;81;21010;-61
2022/10/04 04:31:48;;;;;;;1.05;0.20;;;;;;;8.55;74.46;99578.61;1751993;80;21030;-61
2022/10/04 04:34:28;;;;;;;0.45;0.00;;;;;;;8.53;74.41;99583.16;1746286;80;21541;-62
2022/10/04 04:37:00;;;;;;;1.05;0.10;;;;;;;8.51;74.75;99579.34;1753417;80;21127;-64
2022/10/04 04:42:13;;;;;;;0.30;0.03;;;;;;;8.51;74.50;99594.26;1742020;80;21530;-62
2022/10/04 04:44:53;;;;;;;0.62;0.10;;;;;;;8.57;74.49;99596.34;1725909;81;21521;-62
2022/10/04 04:47:36;;;;;;;1.07;0.20;;;;;;;8.57;74.65;99595.03;1755580;80;21065;-62
2022/10/04 04:50:16;;;;;;;0.75;0.10;;;;;;;8.57;74.87;99602.08;1749010;80;21836;-64
2022/10/04 04:52:56;;;;;;;1.27;0.10;;;;;;;8.54;74.87;99605.80;1763785;80;21038;-61
2022/10/04 04:55:25;;;;;;;2.50;0.10;;;;;;;8.55;74.97;99604.83;1775958;80;21002;-63
2022/10/04 04:57:54;;;;;;;0.62;0.20;;;;;;;8.62;74.91;99611.20;1767408;80;21168;-62
2022/10/04 05:00:34;;;;;;;0.82;0.25;;;;;;;8.68;74.75;99612.50;1785118;80;21065;-62
2022/10/04 05:03:03;;;;;;;3.40;0.30;;;;;;;8.67;74.86;99617.38;1733522;80;21187;-63
2022/10/04 05:05:31;;;;;;;1.65;0.20;;;;;;;8.65;74.98;99618.83;1759879;80;21057;-62
2022/10/04 05:08:28;;;;;;;1.82;0.28;;;;;;;8.67;75.00;99619.52;1770268;79;21722;-63
2022/10/04 05:11:12;;;;;;;1.02;0.20;;;;;;;8.74;74.87;99629.02;1770986;80;21065;-63
2022/10/04 05:14:00;;;;;;;1.72;0.30;;;;;;;8.80;74.75;99630.30;1752133;80;21038;-64
2022/10/04 05:16:41;;;;;;;1.30;0.28;;;;;;;8.82;74.84;99635.76;1753636;80;21108;-63
2022/10/04 05:19:21;;;;;;;1.20;0.30;;;;;;;8.80;74.89;99643.42;1746737;80;21057;-63
2022/10/04 05:21:50;;;;;;;0.93;0.20;;;;;;;8.80;74.68;99643.42;1747838;80;21085;-67
2022/10/04 05:24:42;;;;;;;1.00;0.30;;;;;;;8.86;74.59;99646.82;1749994;80;20995;-64
2022/10/04 05:27:27;;;;;;;3.12;0.50;;;;;;;8.91;74.57;99656.47;1741301;80;21009;-63
2022/10/04 05:30:07;;;;;;;0.50;0.10;;;;;;;8.88;74.49;99655.41;1742522;80;21138;-63
2022/10/04 05:32:59;;;;;;;3.75;0.40;;;;;;;8.84;74.67;99660.09;1747608;80;21047;-65
2022/10/04 05:35:27;;;;;;;0.90;0.30;;;;;;;8.81;74.78;99666.91;1738384;81;21100;-63
2022/10/04 05:38:29;;;;;;;2.25;0.40;;;;;;;8.84;74.91;99659.23;1743872;80;20982;-62
2022/10/04 05:41:09;;;;;;;2.77;0.72;;;;;;;8.92;74.87;99665.50;1748162;80;21082;-65
2022/10/04 05:43:48;;;;;;;4.22;0.50;;;;;;;8.99;74.94;99678.93;1755444;80;21195;-62
2022/10/04 05:46:25;;;;;;;2.47;0.47;;;;;;;8.97;74.64;99679.55;1734819;81;21052;-63
2022/10/04 05:49:07;;;;;;;2.08;0.40;;;;;;;8.96;74.68;99684.92;1765939;79;21495;-64
2022/10/04 05:51:37;;;;;;;1.67;0.28;;;;;;;8.99;74.86;99689.91;1754611;79;21460;-67
2022/10/04 05:54:04;;;;;;;1.25;0.30;;;;;;;9.07;74.83;99688.79;1757709;80;21055;-64
2022/10/04 05:57:03;;;;;;;1.10;0.30;;;;;;;9.14;74.82;99682.54;1764074;79;21223;-66
2022/10/04 05:59:54;;;;;;;4.65;0.50;;;;;;;9.18;75.05;99687.41;1726738;80;21524;-64
2022/10/04 06:02:31;;;;;;;3.87;0.57;;;;;;;9.22;75.16;99690.10;1747977;80;21582;-65
2022/10/04 06:05:15;;;;;;;3.22;0.65;;;;;;;9.28;74.88;99700.09;1745568;80;21132;-66
2022/10/04 06:08:00;;;;;;;3.20;0.70;;;;;;;9.37;74.65;99698.46;1748531;80;21084;-65
2022/10/04 06:10:53;;;;;;;2.62;0.60;;;;;;;9.46;74.50;99708.66;1706832;82;21499;-66
2022/10/04 06:13:58;;;;;;;1.37;0.40;;;;;;;9.51;74.72;99721.39;1742881;80;21035;-66
2022/10/04 06:17:20;;;;;;;2.17;0.68;;;;;;;9.51;73.81;99714.34;1741572;80;21470;-66
2022/10/04 06:19:56;;;;;;;2.55;0.68;;;;;;;9.53;73.73;99726.02;1767550;80;21054;-64
2022/10/04 06:22:25;;;;;;;2.70;0.80;;;;;;;9.61;73.39;99720.94;1762082;80;21046;-66
2022/10/04 06:25:04;;;;;;;3.55;0.70;;;;;;;9.61;73.22;99732.77;1749329;80;21106;-66
2022/10/04 06:27:42;;;;;;;2.17;0.65;;;;;;;9.63;73.06;99736.94;1764114;80;21171;-65
2022/10/04 06:30:17;;;;;;;3.70;0.98;;;;;;;9.63;73.41;99738.25;1747406;80;21589;-65
2022/10/04 06:33:04;;;;;;;2.25;0.72;;;;;;;9.71;73.49;99735.44;1737049;80;21580;-64
2022/10/04 06:36:05;;;;;;;3.37;0.93;;;;;;;9.81;73.10;99750.74;1739289;80;21099;-61
2022/10/04 06:39:14;;;;;;;3.22;1.10;;;;;;;9.92;72.86;99741.45;1746639;80;21259;-68
2022/10/04 06:42:14;;;;;;;3.22;1.00;;;;;;;10.01;72.67;99761.66;1741685;80;20999;-66
2022/10/04 06:45:16;;;;;;;4.87;0.65;;;;;;;10.06;72.95;99746.80;1743279;80;21084;-67
2022/10/04 06:48:31;;;;;;;2.52;0.65;;;;;;;10.16;72.68;99766.05;1749739;80;21030;-63
2022/10/04 06:51:09;;;;;;;3.87;0.93;;;;;;;10.23;71.88;99785.56;1667520;80;21085;-65
2022/10/04 06:54:03;;;;;;;3.50;1.10;;;;;;;10.22;71.90;99758.09;1736318;80;21094;-66
2022/10/04 06:56:52;;;;;;;4.33;0.93;;;;;;;10.22;71.91;99768.61;1742146;80;21074;-68
2022/10/04 07:00:05;;;;;;;3.00;0.80;;;;;;;10.26;72.02;99779.72;1739987;80;21101;-67
2022/10/04 07:02:55;;;;;;;3.20;0.85;;;;;;;10.31;71.64;99774.88;1739157;80;21044;-65
2022/10/04 07:05:32;;;;;;;6.30;0.60;;;;;;;10.34;71.95;99771.98;1757757;80;21039;-61
2022/10/04 07:08:29;;;;;;;2.52;0.70;;;;;;;10.36;71.49;99784.53;1754899;80;21119;-66
2022/10/04 07:10:49;;;;;;;2.75;0.82;;;;;;;10.35;71.64;99794.69;1754328;81;21087;-66
2022/10/04 07:13:33;;;;;;;3.77;0.85;;;;;;;10.35;71.49;99792.06;1746222;80;21160;-67
2022/10/04 07:16:20;;;;;;;3.60;0.90;;;;;;;10.41;71.30;99787.59;1735730;80;21060;-67
2022/10/04 07:19:23;;;;;;;9.48;1.35;;;;;;;10.49;71.44;99797.41;1751431;80;21089;-64
2022/10/04 07:22:11;;;;;;;5.35;1.12;;;;;;;10.50;70.85;99801.22;1769712;80;21108;-67
2022/10/04 07:24:52;;;;;;;6.37;1.17;;;;;;;10.49;70.98;99807.47;1763833;79;21053;-68
2022/10/04 07:27:33;;;;;;;2.65;0.78;;;;;;;10.51;70.55;99806.02;1764287;79;21058;-66
2022/10/04 07:30:05;;;;;;;3.00;1.00;;;;;;;10.57;70.79;99805.45;1769827;79;21097;-66
2022/10/04 07:32:35;;;;;;;9.48;1.72;;;;;;;10.69;70.55;99811.41;1732109;80;21608;-67
2022/10/04 07:35:12;;;;;;;14.45;2.37;;;;;;;10.74;70.49;99808.73;1743734;80;21628;-69
2022/10/04 07:38:15;;;;;;;7.28;1.40;;;;;;;10.80;70.41;99817.87;1731752;80;21010;-66
2022/10/04 07:41:02;;;;;;;4.08;1.00;;;;;;;10.82;69.55;99824.31;1751193;80;21537;-67
2022/10/04 07:43:31;;;;;;;13.62;1.90;;;;;;;10.77;69.74;99824.22;1744318;80;21086;-67
2022/10/04 07:46:37;;;;;;;4.95;1.00;;;;;;;10.83;69.79;99825.98;1730103;81;21126;-67
2022/10/04 07:49:04;;;;;;;4.30;1.15;;;;;;;10.91;69.52;99831.36;1744399;80;21111;-67
2022/10/04 07:51:36;;;;;;;5.37;1.20;;;;;;;10.94;68.74;99820.56;1744740;80;21141;-65
2022/10/04 07:54:22;;;;;;;27.15;5.08;;;;;;;10.92;68.97;99835.67;1745301;80;20998;-68
2022/10/04 07:56:56;;;;;;;12.25;2.50;;;;;;;10.90;69.34;99843.70;1740011;80;28300;-68
2022/10/04 07:59:49;;;;;;;17.20;3.50;;;;;;;10.85;69.00;99846.41;1740683;80;21026;-68
2022/10/04 08:02:46;;;;;;;3.83;1.20;;;;;;;10.80;68.97;99844.68;1728939;80;21291;-66
2022/10/04 08:05:35;;;;;;;4.42;1.65;;;;;;;10.82;69.49;99851.95;1745834;80;21492;-66
2022/10/04 08:08:31;;;;;;;4.47;1.27;;;;;;;10.82;69.59;99854.58;1754298;80;21495;-62
2022/10/04 08:11:17;;;;;;;;;;;;;;;10.75;69.62;99866.14;1756978;81;21508;-66
2022/10/04 08:13:58;;;;;;;6.42;1.70;;;;;;;10.68;70.22;99855.81;1763899;80;20203;-68
2022/10/04 08:16:47;;;;;;;7.78;1.47;;;;;;;10.59;70.58;99861.38;1756251;80;21657;-66
2022/10/04 08:19:37;;;;;;;6.08;1.70;;;;;;;10.59;70.66;99871.45;1763759;80;21097;-64
2022/10/04 08:22:32;;;;;;;4.03;1.42;;;;;;;10.59;70.94;99866.65;1755186;80;21057;-66
2022/10/04 08:25:19;;;;;;;4.42;1.60;;;;;;;10.57;71.48;99873.39;1760325;80;21583;-66
2022/10/04 08:31:13;;;;;;;4.90;1.45;;;;;;;10.55;71.92;99883.19;1723425;81;21208;-65
2022/10/04 08:34:24;;;;;;;4.85;1.22;;;;;;;10.58;71.71;99882.92;1742929;81;21111;-64
2022/10/04 08:37:14;;;;;;;3.87;1.45;;;;;;;10.55;71.98;99883.19;1756499;79;21097;-63
2022/10/04 08:39:59;;;;;;;4.70;1.60;;;;;;;10.50;72.47;99889.34;1697672;82;21058;-61
2022/10/04 08:43:09;;;;;;;9.45;1.55;;;;;;;10.47;72.75;99893.55;1716442;81;21107;-62
2022/10/04 08:45:58;;;;;;;4.20;1.50;;;;;;;10.50;72.70;99898.55;1650213;84;21138;-64
2022/10/04 08:48:50;;;;;;;4.40;1.87;;;;;;;10.57;73.04;99903.64;1721051;80;21512;-63
2022/10/04 08:51:51;;;;;;;4.33;1.57;;;;;;;10.66;73.16;99899.83;1728066;81;21005;-63
2022/10/04 08:54:57;;;;;;;3.67;1.42;;;;;;;10.71;73.15;99897.16;1700232;80;21015;-64
2022/10/04 08:57:32;;;;;;;4.50;1.32;;;;;;;10.81;73.22;99908.17;1753753;80;21498;-64
2022/10/04 09:00:19;;;;;;;4.65;1.70;;;;;;;10.94;72.89;99912.23;1748084;80;21097;-64
2022/10/04 09:03:01;;;;;;;4.55;1.60;;;;;;;11.07;72.19;99909.31;1721780;81;21552;-64
2022/10/04 09:06:12;;;;;;;4.80;2.10;;;;;;;11.16;72.04;99919.50;1742707;80;21082;-73
2022/10/04 09:09:00;;;;;;;4.12;1.32;;;;;;;11.19;72.04;99921.86;1751048;80;21539;-63
2022/10/04 09:11:54;;;;;;;3.95;1.42;;;;;;;11.20;71.58;99926.66;1737891;81;21034;-63
2022/10/04 09:15:00;;;;;;;3.98;1.45;;;;;;;11.24;70.93;99930.17;1749319;80;21243;-64
2022/10/04 09:18:16;;;;;;;6.40;1.90;;;;;;;11.22;70.53;99929.48;1736969;80;21054;-65
2022/10/04 09:21:09;;;;;;;4.70;1.55;;;;;;;11.23;69.54;99939.53;1747129;80;21090;-65
2022/10/04 09:24:08;;;;;;;5.85;1.95;;;;;;;11.15;69.86;99938.92;1743253;80;21045;-64
2022/10/04 09:26:44;;;;;;;4.90;2.20;;;;;;;11.11;70.54;99934.88;1744373;81;21141;-65
2022/10/04 09:29:25;;;;;;;4.67;2.10;;;;;;;11.07;70.62;99940.09;1713106;80;21178;-65
2022/10/04 09:32:09;;;;;;;5.12;2.25;;;;;;;11.07;70.51;99944.03;1747796;80;21099;-65
2022/10/04 09:35:05;;;;;;;12.00;2.35;;;;;;;11.12;70.17;99940.50;1745667;80;21062;-65
2022/10/04 09:38:09;;;;;;;5.90;2.00;;;;;;;11.15;69.98;99952.91;1749873;80;21490;-64
2022/10/04 09:40:51;;;;;;;6.15;2.58;;;;;;;11.10;69.49;99947.72;1740246;80;21336;-65
2022/10/04 09:43:47;;;;;;;7.37;2.50;;;;;;;11.05;69.92;99955.19;1720918;82;21969;-63
2022/10/04 09:46:30;;;;;;;6.53;1.87;;;;;;;11.03;69.85;99954.47;1766768;80;21066;-68
2022/10/04 09:49:21;;;;;;;5.03;2.20;;;;;;;11.04;69.61;99970.14;1747888;80;21109;-65
2022/10/04 09:52:01;;;;;;;6.25;1.87;;;;;;;11.09;69.50;99960.52;1745169;81;21144;-61
2022/10/04 09:54:56;;;;;;;5.00;2.15;;;;;;;11.09;69.47;99963.98;1747509;80;21042;-64
2022/10/04 09:58:10;;;;;;;7.05;2.17;;;;;;;11.09;69.24;99965.79;1749577;80;21095;-66
2022/10/04 10:01:00;;;;;;;4.92;2.12;;;;;;;11.09;69.50;99968.42;1749850;80;21097;-64
2022/10/04 10:04:05;;;;;;;7.33;2.52;;;;;;;11.05;68.92;99972.30;1740643;80;21040;-64
2022/10/04 10:06:59;;;;;;;7.12;2.27;;;;;;;11.08;69.19;99972.86;1751252;80;21121;-63
2022/10/04 10:16:28;;;;;;;6.60;2.60;;;;;;;11.33;67.79;99973.28;1719213;81;21084;-66
2022/10/04 10:19:36;;;;;;;5.87;2.60;;;;;;;11.39;67.79;99978.51;1747251;80;21721;-64
2022/10/04 10:22:09;;;;;;;5.30;2.00;;;;;;;11.40;67.05;99982.33;1743660;80;20983;-66
2022/10/04 10:25:17;;;;;;;6.20;2.50;;;;;;;11.47;67.18;99996.60;1738975;80;21584;-65
2022/10/04 10:28:29;;;;;;;10.55;2.35;;;;;;;11.57;66.68;99998.42;1746673;80;21740;-67
2022/10/04 10:31:10;;;;;;;5.05;1.80;;;;;;;11.61;67.08;99994.03;1736865;80;21101;-61
2022/10/04 10:34:12;;;;;;;6.25;2.30;;;;;;;11.59;66.07;100010.47;1758399;80;21034;-64
2022/10/04 10:36:59;;;;;;;6.22;2.20;;;;;;;11.57;65.77;100001.05;1762929;80;21126;-64
2022/10/04 10:40:08;;;;;;;4.58;2.30;;;;;;;11.50;66.16;100008.68;1747166;80;21117;-65
2022/10/04 10:43:06;;;;;;;6.03;2.33;;;;;;;11.55;66.76;100006.92;1746088;80;21147;-65
2022/10/04 10:46:08;;;;;;;6.25;2.20;;;;;;;11.57;66.82;100005.83;1724123;81;21005;-66
2022/10/04 10:48:52;;;;;;;5.12;2.40;;;;;;;11.56;66.97;100015.19;1723187;80;21104;-65
2022/10/04 10:51:49;;;;;;;4.55;2.10;;;;;;;11.51;67.06;100014.28;1749354;80;21039;-63
2022/10/04 10:54:33;;;;;;;5.05;2.15;;;;;;;11.49;67.12;100028.08;1750190;80;21047;-66
2022/10/04 10:57:51;;;;;;;5.33;2.17;;;;;;;11.53;67.05;100028.99;1746773;80;21051;-67
2022/10/04 11:00:34;;;;;;;4.92;2.60;;;;;;;11.58;66.46;100023.28;1755459;80;21599;-67
2022/10/04 11:03:21;;;;;;;6.35;2.40;;;;;;;11.58;66.50;100007.48;1739992;80;21034;-64
2022/10/04 11:06:27;;;;;;;5.87;2.40;;;;;;;11.62;66.55;100023.87;1745740;80;21116;-65
2022/10/04 11:09:41;;;;;;;4.72;1.98;;;;;;;11.65;65.99;100028.84;1745645;80;21611;-67
2022/10/04 11:12:28;;;;;;;5.85;2.30;;;;;;;11.66;65.49;100019.48;1751315;80;21167;-62
2022/10/04 11:15:19;;;;;;;5.78;2.35;;;;;;;11.74;65.32;100013.52;1704296;80;21639;-66
2022/10/04 11:17:57;;;;;;;5.28;2.12;;;;;;;11.82;64.34;100022.06;1750426;80;21144;-66
2022/10/04 11:20:39;;;;;;;5.87;2.58;;;;;;;11.86;64.52;100026.89;1745178;80;21058;-65
2022/10/04 11:24:00;;;;;;;6.30;2.60;;;;;;;11.92;64.13;100030.83;1748975;80;21296;-65
2022/10/04 11:26:41;;;;;;;7.03;2.20;;;;;;;11.94;63.75;100040.74;1746985;80;21247;-65
2022/10/04 11:29:34;;;;;;;5.37;2.50;;;;;;;12.03;63.70;100028.52;1745120;80;21054;-66
2022/10/04 11:32:08;;;;;;;5.60;2.58;;;;;;;12.11;63.10;100030.45;1743672;81;21082;-67
2022/10/04 11:34:59;;;;;;;7.72;2.50;;;;;;;12.08;62.68;100025.78;1746525;80;21074;-64
2022/10/04 11:37:49;;;;;;;5.45;2.15;;;;;;;12.10;62.18;100041.97;1757209;80;20995;-63
2022/10/04 11:40:47;;;;;;;4.35;2.20;;;;;;;12.06;62.34;100053.29;1746938;80;21128;-63
2022/10/04 11:43:46;;;;;;;4.42;1.87;;;;;;;12.01;62.73;100039.20;1470156;80;10000446;-71
2022/10/04 11:46:54;;;;;;;4.90;2.17;;;;;;;11.91;62.48;100048.92;1641069;85;21105;-64
2022/10/04 11:49:49;;;;;;;4.90;2.02;;;;;;;11.92;62.74;100042.69;1654585;84;22258;-65
2022/10/04 11:52:45;;;;;;;5.67;1.85;;;;;;;11.99;62.10;100041.16;1646627;85;21038;-68
2022/10/04 11:55:35;;;;;;;4.78;2.30;;;;;;;11.99;62.23;100049.56;1649441;84;21085;-67
2022/10/04 11:58:45;;;;;;;7.20;1.90;;;;;;;11.96;62.65;100055.93;1660336;85;21144;-63
2022/10/04 12:01:41;;;;;;;4.85;2.12;;;;;;;11.95;62.51;100046.34;1644330;85;21112;-66
2022/10/04 12:04:33;;;;;;;4.03;1.67;;;;;;;11.97;61.72;100048.38;1584547;88;21175;-66
2022/10/04 12:07:39;;;;;;;5.83;2.10;;;;;;;12.00;60.98;100057.80;1656576;86;21141;-68
2022/10/04 12:10:30;;;;;;;4.55;1.67;;;;;;;12.01;61.54;100051.56;1660500;83;27122;-70
2022/10/04 12:13:30;;;;;;;5.17;1.80;;;;;;;12.11;60.98;100049.74;1620541;85;21061;-65
2022/10/04 12:16:38;;;;;;;4.33;1.47;;;;;;;12.25;60.82;100056.38;1662749;84;21466;-65
2022/10/04 12:19:38;;;;;;;3.83;1.62;;;;;;;12.27;59.24;100057.06;1632602;85;21139;-67
2022/10/04 12:22:31;;;;;;;3.95;1.87;;;;;;;12.30;59.33;100079.20;1650691;85;21791;-70
2022/10/04 12:25:52;;;;;;;5.35;1.70;;;;;;;12.28;59.75;100049.50;1673341;84;21086;-62
2022/10/04 12:28:58;;;;;;;4.97;1.72;;;;;;;12.26;60.04;100066.79;1666325;84;21081;-66
2022/10/04 12:31:47;;;;;;;5.08;2.27;;;;;;;12.26;59.91;100055.41;1665822;84;22323;-67
2022/10/04 12:34:20;;;;;;;5.95;2.25;;;;;;;12.26;59.86;100062.01;1653368;85;21731;-66
2022/10/04 12:37:21;;;;;;;5.92;1.92;;;;;;;12.26;59.49;100062.01;1673264;84;21540;-66
2022/10/04 12:40:06;;;;;;;4.60;2.12;;;;;;;12.26;59.83;100075.20;1662614;84;21154;-67
2022/10/04 12:42:55;;;;;;;5.17;2.17;;;;;;;12.30;59.75;100054.14;1651044;85;21601;-66
2022/10/04 12:45:42;;;;;;;3.95;2.20;;;;;;;12.36;59.85;100059.36;1666351;84;21101;-68
2022/10/04 12:48:28;;;;;;;5.83;2.17;;;;;;;12.37;60.07;100063.17;1663496;84;21239;-70
2022/10/04 12:51:28;;;;;;;5.85;2.52;;;;;;;12.36;60.29;100060.19;1656534;85;21561;-66
2022/10/04 12:54:00;;;;;;;4.72;2.15;;;;;;;12.34;59.88;100070.05;1663931;85;21154;-66
2022/10/04 12:56:55;;;;;;;4.30;1.92;;;;;;;12.26;60.23;100091.85;1652391;85;21566;-68
2022/10/04 13:00:00;;;;;;;5.12;2.62;;;;;;;12.23;60.47;100068.39;1661635;84;21175;-67
2022/10/04 13:02:54;;;;;;;5.15;2.58;;;;;;;12.19;60.45;100072.79;1659118;84;21142;-63
2022/10/04 13:05:47;;;;;;;4.97;2.40;;;;;;;12.14;60.31;100078.94;1651671;85;21097;-65
2022/10/04 13:08:51;;;;;;;4.35;1.90;;;;;;;12.15;60.57;100071.39;1667520;84;21109;-64
2022/10/04 13:12:01;;;;;;;4.58;1.98;;;;;;;12.18;60.27;100076.39;1663508;84;21072;-67
2022/10/04 13:16:37;;;;;;;4.95;2.30;;;;;;;12.25;60.38;100079.66;1806401;77;23291;-59
2022/10/04 13:19:25;;;;;;;5.37;1.98;;;;;;;12.34;59.98;100087.66;1778786;78;21104;-59
2022/10/04 13:22:06;;;;;;;4.22;2.20;;;;;;;12.31;60.03;100091.44;1778173;78;21198;-59
2022/10/04 13:25:03;;;;;;;4.40;1.92;;;;;;;12.28;60.02;100096.98;1755863;81;21059;-59
2022/10/04 13:28:01;;;;;;;5.17;2.10;;;;;;;12.23;60.15;100104.00;1778056;79;22377;-59
2022/10/04 13:30:48;;;;;;;7.55;2.37;;;;;;;12.18;60.56;100115.95;1781929;78;21019;-59
2022/10/04 13:33:26;;;;;;;7.95;2.15;;;;;;;12.08;60.77;100116.77;1779869;79;21000;-59
2022/10/04 13:36:05;;;;;;;4.30;2.08;;;;;;;12.07;61.24;100129.63;1776802;78;21037;-59
2022/10/04 13:39:11;;;;;;;4.85;2.08;;;;;;;12.13;61.84;100132.69;1775550;79;21047;-59
2022/10/04 13:41:46;;;;;;;5.67;2.40;;;;;;;12.09;61.69;100146.64;1739345;80;20995;-59
2022/10/04 13:44:38;;;;;;;5.00;2.33;;;;;;;12.03;62.43;100147.18;1774456;79;21619;-60
2022/10/04 13:47:28;;;;;;;4.47;2.22;;;;;;;11.93;62.86;100152.94;1782458;78;21011;-59
2022/10/04 13:50:27;;;;;;;4.75;2.20;;;;;;;11.82;63.30;100140.20;1737964;81;21182;-59
2022/10/04 13:59:27;;;;;;;4.15;1.67;;;;;;;11.66;64.57;100153.89;1708744;81;21075;-58
2022/10/04 14:02:24;;;;;;;4.08;1.70;;;;;;;11.65;65.13;100164.56;1714329;81;21070;-59
2022/10/04 14:05:16;;;;;;;;;;;;;;;11.58;64.97;100161.63;1746735;81;21110;-60
2022/10/04 14:08:16;;;;;;;4.08;1.72;;;;;;;11.47;65.52;100167.03;1711868;82;20200;-59
2022/10/04 14:11:23;;;;;;;3.98;1.35;;;;;;;11.33;66.27;100174.33;1742996;81;21158;-59
2022/10/04 14:14:27;;;;;;;4.05;1.60;;;;;;;11.28;66.78;100171.27;1735501;81;21140;-58
2022/10/04 14:17:27;;;;;;;5.22;1.50;;;;;;;11.26;67.17;100175.84;1712206;82;21559;-59